createdAt,value
2022-11-04T00:00:48.588Z,11.75
2022-11-04T00:03:15.917Z,11.07
2022-11-04T00:05:42.758Z,11.52
2022-11-04T00:08:24.275Z,10.88
2022-11-04T00:11:18.247Z,11.10
2022-11-04T00:13:46.663Z,10.15
2022-11-04T00:16:33.469Z,10.50
2022-11-04T00:19:01.216Z,10.15
2022-11-04T00:21:47.690Z,11.57
2022-11-04T00:24:50.136Z,11.40
2022-11-04T00:27:39.937Z,10.43
2022-11-04T00:30:10.008Z,10.52
2022-11-04T00:32:55.939Z,10.27
2022-11-04T00:35:22.910Z,11.45
2022-11-04T00:37:50.109Z,14.20
2022-11-04T00:40:17.418Z,10.45
2022-11-04T00:42:46.473Z,12.20
2022-11-04T00:45:13.349Z,10.68
2022-11-04T00:47:40.634Z,10.68
2022-11-04T00:50:08.076Z,10.52
2022-11-04T00:52:35.024Z,13.73
2022-11-04T00:55:02.348Z,11.93
2022-11-04T00:57:29.254Z,11.35
2022-11-04T00:59:56.587Z,12.02
2022-11-04T01:02:23.873Z,11.05
2022-11-04T01:04:51.192Z,11.43
2022-11-04T01:07:18.100Z,11.35
2022-11-04T01:09:45.327Z,11.90
2022-11-04T01:12:12.418Z,11.27
2022-11-04T01:14:39.648Z,11.65
2022-11-04T01:17:07.180Z,11.35
2022-11-04T01:19:34.343Z,11.43
2022-11-04T01:22:01.224Z,12.15
2022-11-04T01:24:28.546Z,11.48
2022-11-04T01:26:55.722Z,11.07
2022-11-04T01:29:23.321Z,11.68
2022-11-04T01:31:50.269Z,11.05
2022-11-04T01:34:17.626Z,11.15
2022-11-04T01:36:44.756Z,11.52
2022-11-04T01:39:30.041Z,10.77
2022-11-04T01:41:57.188Z,11.75
2022-11-04T01:44:42.240Z,11.60
2022-11-04T01:47:48.041Z,11.23
2022-11-04T01:50:20.527Z,10.75
2022-11-04T01:52:54.712Z,11.00
2022-11-04T01:55:26.252Z,10.60
2022-11-04T01:57:57.024Z,11.43
2022-11-04T02:00:24.105Z,10.93
2022-11-04T02:02:59.155Z,10.63
2022-11-04T02:05:27.325Z,11.07
2022-11-04T02:07:58.142Z,10.38
2022-11-04T02:10:28.058Z,11.07
2022-11-04T02:12:57.120Z,11.18
2022-11-04T02:15:37.380Z,10.77
2022-11-04T02:18:17.875Z,11.48
2022-11-04T02:20:44.735Z,10.45
2022-11-04T02:23:43.058Z,9.70
2022-11-04T02:26:33.337Z,9.95
2022-11-04T02:29:18.755Z,9.35
2022-11-04T02:32:04.629Z,9.50
2022-11-04T02:34:45.663Z,10.20
2022-11-04T02:37:34.206Z,9.83
2022-11-04T02:40:27.787Z,9.30
2022-11-04T02:42:54.728Z,9.32
2022-11-04T02:45:26.564Z,11.77
2022-11-04T02:50:52.546Z,9.02
2022-11-04T02:53:27.053Z,9.77
2022-11-04T02:55:57.405Z,8.55
2022-11-04T02:58:36.190Z,8.38
2022-11-04T03:01:05.196Z,8.25
2022-11-04T03:03:40.956Z,8.70
2022-11-04T03:06:11.718Z,8.88
2022-11-04T03:08:43.797Z,10.03
2022-11-04T03:11:17.293Z,9.25
2022-11-04T03:13:57.729Z,9.55
2022-11-04T03:16:36.163Z,8.63
2022-11-04T03:19:09.147Z,9.15
2022-11-04T03:21:41.987Z,9.73
2022-11-04T03:24:08.870Z,8.68
2022-11-04T03:26:53.618Z,8.93
2022-11-04T03:29:31.395Z,8.65
2022-11-04T03:32:22.456Z,9.88
2022-11-04T03:34:50.546Z,9.27
2022-11-04T03:37:18.312Z,10.07
2022-11-04T03:39:45.485Z,9.07
2022-11-04T03:42:20.617Z,8.65
2022-11-04T03:44:56.280Z,9.80
2022-11-04T03:47:26.689Z,8.65
2022-11-04T03:50:01.199Z,8.80
2022-11-04T03:52:28.726Z,9.60
2022-11-04T03:54:55.831Z,9.45
2022-11-04T03:57:26.759Z,8.60
2022-11-04T04:00:10.542Z,9.50
2022-11-04T04:03:02.186Z,8.95
2022-11-04T04:05:35.281Z,7.80
2022-11-04T04:08:30.552Z,8.52
2022-11-04T04:11:00.251Z,8.80
2022-11-04T04:13:51.080Z,8.18
2022-11-04T04:16:27.421Z,8.25
2022-11-04T04:19:02.077Z,7.90
2022-11-04T04:21:35.853Z,8.60
2022-11-04T04:24:25.709Z,8.77
2022-11-04T04:27:13.703Z,8.70
2022-11-04T04:29:44.339Z,8.40
2022-11-04T04:32:12.414Z,8.35
2022-11-04T04:34:40.092Z,7.95
2022-11-04T04:37:11.315Z,8.82
2022-11-04T04:40:10.381Z,8.10
2022-11-04T04:42:57.244Z,9.30
2022-11-04T04:45:40.035Z,8.32
2022-11-04T04:48:09.595Z,9.32
2022-11-04T04:50:40.836Z,8.48
2022-11-04T04:53:08.435Z,8.93
2022-11-04T04:55:40.646Z,8.73
2022-11-04T04:58:09.804Z,8.63
2022-11-04T05:00:36.771Z,8.15
2022-11-04T05:03:04.025Z,8.02
2022-11-04T05:05:31.842Z,8.25
2022-11-04T05:08:08.926Z,7.90
2022-11-04T05:10:36.118Z,7.60
2022-11-04T05:13:22.540Z,8.13
2022-11-04T05:15:49.420Z,8.95
2022-11-04T05:18:17.630Z,8.63
2022-11-04T05:20:44.633Z,7.65
2022-11-04T05:23:12.386Z,8.48
2022-11-04T05:25:41.291Z,8.57
2022-11-04T05:28:09.383Z,8.00
2022-11-04T05:30:36.986Z,7.97
2022-11-04T05:33:05.197Z,8.73
2022-11-04T05:35:33.521Z,7.75
2022-11-04T05:38:00.815Z,7.95
2022-11-04T05:40:28.263Z,7.80
2022-11-04T05:42:58.225Z,7.85
2022-11-04T05:45:25.499Z,8.27
2022-11-04T05:48:01.084Z,7.63
2022-11-04T05:50:29.351Z,7.72
2022-11-04T05:52:58.230Z,8.45
2022-11-04T05:55:26.361Z,7.72
2022-11-04T05:57:54.165Z,7.68
2022-11-04T06:00:22.092Z,7.20
2022-11-04T06:02:50.103Z,7.97
2022-11-04T06:05:16.975Z,7.38
2022-11-04T06:07:44.733Z,7.60
2022-11-04T06:10:12.185Z,7.50
2022-11-04T06:12:40.118Z,7.82
2022-11-04T06:15:08.263Z,7.80
2022-11-04T06:17:36.364Z,7.95
2022-11-04T06:20:03.252Z,7.13
2022-11-04T06:22:30.523Z,7.10
2022-11-04T06:24:57.565Z,7.00
2022-11-04T06:27:24.860Z,6.57
2022-11-04T06:29:52.909Z,6.28
2022-11-04T06:32:20.442Z,6.13
2022-11-04T06:34:47.369Z,7.30
2022-11-04T06:37:14.498Z,8.32
2022-11-04T06:39:41.413Z,7.82
2022-11-04T06:42:08.639Z,7.10
2022-11-04T06:44:37.037Z,7.10
2022-11-04T06:47:04.498Z,8.63
2022-11-04T06:49:31.366Z,7.10
2022-11-04T06:51:58.736Z,7.38
2022-11-04T06:54:25.573Z,6.82
2022-11-04T06:56:52.719Z,7.38
2022-11-04T06:59:21.225Z,8.57
2022-11-04T07:01:52.282Z,6.90
2022-11-04T07:04:19.805Z,7.50
2022-11-04T07:06:47.260Z,7.60
2022-11-04T07:09:15.785Z,7.40
2022-11-04T07:11:44.362Z,6.78
2022-11-04T07:14:12.183Z,7.18
2022-11-04T07:16:39.940Z,7.22
2022-11-04T07:19:07.105Z,6.57
2022-11-04T07:21:34.503Z,8.10
2022-11-04T07:24:02.424Z,6.93
2022-11-04T07:26:29.984Z,7.20
2022-11-04T07:28:58.106Z,6.95
2022-11-04T07:31:25.871Z,7.20
2022-11-04T07:33:53.871Z,7.18
2022-11-04T07:36:21.065Z,7.38
2022-11-04T07:38:48.578Z,8.65
2022-11-04T07:41:16.842Z,6.57
2022-11-04T07:43:48.973Z,7.03
2022-11-04T07:46:16.231Z,7.82
2022-11-04T07:48:43.454Z,8.07
2022-11-04T07:51:14.897Z,6.90
2022-11-04T07:53:42.634Z,9.15
2022-11-04T07:56:14.858Z,8.07
2022-11-04T07:58:42.197Z,8.77
2022-11-04T08:01:13.391Z,8.48
2022-11-04T08:03:40.454Z,8.48
2022-11-04T08:06:10.868Z,7.97
2022-11-04T08:08:37.910Z,7.85
2022-11-04T08:11:16.803Z,8.70
2022-11-04T08:13:45.129Z,8.20
2022-11-04T08:16:15.083Z,8.57
2022-11-04T08:18:42.842Z,7.90
2022-11-04T08:21:10.424Z,8.23
2022-11-04T08:23:37.383Z,7.40
2022-11-04T08:26:09.754Z,9.00
2022-11-04T08:28:36.975Z,8.75
2022-11-04T08:31:06.531Z,7.60
2022-11-04T08:33:34.497Z,8.70
2022-11-04T08:36:07.141Z,9.88
2022-11-04T08:38:34.529Z,8.93
2022-11-04T08:41:04.026Z,8.05
2022-11-04T08:43:31.422Z,7.47
2022-11-04T08:45:58.633Z,7.45
2022-11-04T08:48:26.072Z,8.40
2022-11-04T08:50:55.668Z,7.85
2022-11-04T08:53:22.558Z,7.97
2022-11-04T08:55:49.805Z,7.82
2022-11-04T08:58:17.566Z,7.82
2022-11-04T09:00:44.927Z,8.20
2022-11-04T09:03:11.981Z,7.93
2022-11-04T09:05:49.120Z,8.52
2022-11-04T09:08:17.938Z,7.88
2022-11-04T09:10:47.698Z,7.78
2022-11-04T09:13:15.927Z,7.93
2022-11-04T09:15:43.388Z,7.53
2022-11-04T09:18:10.949Z,8.10
2022-11-04T09:20:42.236Z,8.60
2022-11-04T09:23:10.379Z,7.78
2022-11-04T09:25:38.086Z,6.88
2022-11-04T09:28:05.180Z,6.80
2022-11-04T09:30:33.005Z,7.72
2022-11-04T09:33:00.409Z,7.93
2022-11-04T09:35:28.181Z,7.65
2022-11-04T09:37:55.923Z,8.38
2022-11-04T09:40:25.617Z,7.72
2022-11-04T09:43:09.991Z,7.82
2022-11-04T09:45:41.736Z,8.77
2022-11-04T09:48:19.278Z,7.88
2022-11-04T09:50:57.384Z,7.72
2022-11-04T09:53:33.922Z,7.72
2022-11-04T09:56:05.011Z,7.00
2022-11-04T09:58:36.899Z,9.63
2022-11-04T10:01:23.146Z,7.80
2022-11-04T10:04:04.956Z,7.88
2022-11-04T10:06:56.345Z,8.23
2022-11-04T10:09:51.361Z,7.85
2022-11-04T10:12:43.493Z,7.30
2022-11-04T10:17:52.594Z,6.35
2022-11-04T10:20:25.873Z,6.55
2022-11-04T10:22:59.108Z,7.80
2022-11-04T10:25:49.950Z,7.88
2022-11-04T10:28:25.641Z,8.47
2022-11-04T10:30:52.721Z,8.13
2022-11-04T10:33:28.565Z,7.55
2022-11-04T10:36:00.702Z,7.45
2022-11-04T10:38:38.490Z,7.80
2022-11-04T10:41:39.132Z,7.10
2022-11-04T10:44:14.867Z,7.32
2022-11-04T10:47:11.070Z,7.63
2022-11-04T10:50:28.263Z,8.00
2022-11-04T10:53:14.593Z,7.53
2022-11-04T10:55:52.140Z,7.75
2022-11-04T10:58:27.716Z,7.13
2022-11-04T11:00:55.801Z,8.18
2022-11-04T11:03:25.796Z,7.07
2022-11-04T11:05:53.803Z,7.03
2022-11-04T11:08:37.547Z,7.43
2022-11-04T11:11:08.850Z,7.00
2022-11-04T11:16:10.229Z,6.80
2022-11-04T11:18:38.817Z,6.90
2022-11-04T11:21:09.823Z,7.13
2022-11-04T11:23:47.332Z,7.38
2022-11-04T11:26:21.055Z,7.28
2022-11-04T11:28:59.049Z,6.82
2022-11-04T11:31:39.292Z,7.60
2022-11-04T11:34:16.309Z,6.10
2022-11-04T11:36:44.858Z,6.97
2022-11-04T11:39:12.254Z,5.22
2022-11-04T11:41:53.590Z,7.20
2022-11-04T11:47:22.409Z,6.82
2022-11-04T11:50:16.154Z,6.43
2022-11-04T11:52:44.776Z,7.00
2022-11-04T11:55:26.761Z,6.28
2022-11-04T12:00:52.629Z,8.15
2022-11-04T12:09:52.315Z,7.07
2022-11-04T12:12:31.586Z,6.55
2022-11-04T12:15:08.693Z,7.15
2022-11-04T12:17:54.335Z,6.97
2022-11-04T12:20:36.590Z,6.18
2022-11-04T12:23:34.454Z,7.07
2022-11-04T12:26:12.508Z,6.03
2022-11-04T12:29:07.600Z,6.30
2022-11-04T12:32:10.418Z,6.18
2022-11-04T12:34:40.516Z,6.78
2022-11-04T12:37:25.811Z,6.88
2022-11-04T12:40:11.532Z,6.32
2022-11-04T12:42:41.796Z,7.82
2022-11-04T12:45:12.195Z,7.05
2022-11-04T12:47:43.038Z,6.68
2022-11-04T12:50:34.731Z,6.47
2022-11-04T12:53:40.904Z,7.03
2022-11-04T12:56:11.934Z,6.97
2022-11-04T12:59:08.912Z,6.80
2022-11-04T13:01:45.227Z,6.68
2022-11-04T13:04:23.972Z,6.47
2022-11-04T13:07:04.038Z,6.50
2022-11-04T13:09:43.707Z,7.15
2022-11-04T13:12:24.696Z,8.25
2022-11-04T13:15:22.629Z,8.25
2022-11-04T13:17:54.783Z,6.72
2022-11-04T13:20:45.474Z,6.05
2022-11-04T13:23:21.132Z,7.10
2022-11-04T13:25:48.636Z,8.95
2022-11-04T13:28:19.783Z,8.13
2022-11-04T13:31:05.690Z,6.18
2022-11-04T13:33:35.810Z,6.85
2022-11-04T13:36:21.961Z,6.80
2022-11-04T13:39:00.767Z,6.20
2022-11-04T13:41:39.608Z,7.15
2022-11-04T13:44:19.485Z,6.28
2022-11-04T13:46:52.706Z,6.97
2022-11-04T13:49:32.394Z,7.07
2022-11-04T13:52:14.575Z,6.38
2022-11-04T13:54:52.947Z,7.90
2022-11-04T13:57:22.869Z,8.10
2022-11-04T14:00:13.375Z,6.75
2022-11-04T14:02:45.801Z,7.70
2022-11-04T14:05:28.692Z,5.80
2022-11-04T14:08:01.745Z,6.03
2022-11-04T14:10:48.272Z,8.32
2022-11-04T14:13:27.488Z,6.28
2022-11-04T14:16:13.908Z,6.47
2022-11-04T14:18:46.452Z,7.13
2022-11-04T14:21:15.869Z,6.82
2022-11-04T14:23:46.073Z,6.57
2022-11-04T14:26:16.623Z,7.23
2022-11-04T14:28:47.159Z,6.15
2022-11-04T14:31:34.189Z,7.15
2022-11-04T14:34:01.433Z,7.90
2022-11-04T14:36:37.206Z,7.45
2022-11-04T14:39:10.494Z,6.60
2022-11-04T14:41:40.470Z,6.90
2022-11-04T14:44:15.934Z,8.82
2022-11-04T14:46:48.677Z,7.45
2022-11-04T14:49:41.141Z,7.05
2022-11-04T14:52:20.824Z,7.05
2022-11-04T14:54:48.666Z,7.28
2022-11-04T14:57:21.337Z,7.70
2022-11-04T14:59:48.572Z,7.13
2022-11-04T15:02:22.770Z,7.28
2022-11-04T15:04:58.827Z,7.50
2022-11-04T15:07:46.384Z,6.95
2022-11-04T15:10:25.210Z,7.18
2022-11-04T15:13:00.201Z,6.88
2022-11-04T15:15:39.102Z,7.40
2022-11-04T15:18:14.001Z,8.27
2022-11-04T15:20:49.957Z,7.15
2022-11-04T15:23:35.010Z,7.40
2022-11-04T15:26:03.912Z,7.70
2022-11-04T15:28:40.629Z,7.88
2022-11-04T15:31:20.788Z,7.20
2022-11-04T15:33:51.358Z,7.38
2022-11-04T15:36:24.481Z,7.95
2022-11-04T15:39:08.621Z,8.27
2022-11-04T15:41:57.749Z,8.45
2022-11-04T15:44:36.806Z,7.90
2022-11-04T15:47:28.308Z,8.20
2022-11-04T15:50:14.845Z,7.75
2022-11-04T15:52:50.713Z,8.02
2022-11-04T15:55:24.206Z,9.48
2022-11-04T15:57:51.816Z,8.95
2022-11-04T16:00:28.529Z,8.73
2022-11-04T16:02:58.028Z,8.68
2022-11-04T16:05:33.981Z,8.70
2022-11-04T16:08:22.025Z,8.93
2022-11-04T16:10:50.663Z,9.23
2022-11-04T16:13:21.610Z,9.73
2022-11-04T16:16:01.858Z,11.27
2022-11-04T16:18:39.649Z,10.02
2022-11-04T16:21:28.869Z,9.20
2022-11-04T16:24:01.466Z,10.43
2022-11-04T16:26:37.692Z,9.05
2022-11-04T16:29:13.780Z,10.25
2022-11-04T16:31:40.702Z,9.40
2022-11-04T16:34:14.532Z,8.95
2022-11-04T16:36:41.640Z,9.48
2022-11-04T16:39:08.977Z,9.52
2022-11-04T16:41:40.814Z,9.25
2022-11-04T16:44:18.850Z,9.73
2022-11-04T16:46:45.786Z,10.35
2022-11-04T16:49:18.491Z,10.43
2022-11-04T16:51:48.028Z,10.25
2022-11-04T16:54:15.228Z,10.13
2022-11-04T16:56:42.091Z,11.05
2022-11-04T16:59:11.771Z,10.35
2022-11-04T17:01:40.046Z,9.65
2022-11-04T17:04:08.143Z,8.70
2022-11-04T17:06:35.835Z,10.60
2022-11-04T17:09:03.909Z,9.48
2022-11-04T17:11:30.853Z,9.65
2022-11-04T17:13:58.020Z,10.18
2022-11-04T17:16:24.913Z,10.00
2022-11-04T17:18:52.252Z,10.52
2022-11-04T17:21:20.727Z,9.35
2022-11-04T17:23:47.950Z,10.32
2022-11-04T17:26:15.222Z,9.95
2022-11-04T17:28:42.337Z,10.10
2022-11-04T17:31:16.490Z,10.55
2022-11-04T17:33:43.675Z,10.88
2022-11-04T17:36:17.067Z,11.90
2022-11-04T17:38:44.331Z,10.68
2022-11-04T17:41:30.071Z,10.43
2022-11-04T17:44:00.361Z,10.15
2022-11-04T17:46:34.860Z,11.15
2022-11-04T17:49:13.191Z,11.85
2022-11-04T17:51:42.717Z,10.85
2022-11-04T17:54:10.850Z,11.95
2022-11-04T17:56:38.610Z,10.73
2022-11-04T17:59:06.173Z,11.43
2022-11-04T18:01:35.037Z,10.90
2022-11-04T18:04:02.742Z,11.15
2022-11-04T18:06:31.784Z,10.82
2022-11-04T18:08:59.890Z,11.50
2022-11-04T18:11:47.673Z,11.82
2022-11-04T18:14:17.342Z,10.77
2022-11-04T18:16:46.893Z,11.20
2022-11-04T18:19:15.520Z,11.30
2022-11-04T18:21:42.509Z,11.05
2022-11-04T18:24:10.156Z,11.40
2022-11-04T18:26:37.227Z,11.70
2022-11-04T18:29:05.062Z,10.65
2022-11-04T18:31:35.642Z,11.25
2022-11-04T18:34:06.477Z,12.05
2022-11-04T18:36:38.372Z,11.02
2022-11-04T18:39:12.085Z,11.00
2022-11-04T18:41:41.922Z,11.82
2022-11-04T18:44:15.220Z,12.07
2022-11-04T18:46:42.538Z,11.60
2022-11-04T18:49:11.021Z,11.48
2022-11-04T18:51:37.926Z,12.30
2022-11-04T18:54:06.347Z,11.35
2022-11-04T18:56:33.603Z,12.30
2022-11-04T18:59:01.474Z,10.88
2022-11-04T19:01:33.692Z,11.85
2022-11-04T19:04:01.451Z,10.85
2022-11-04T19:06:34.705Z,11.50
2022-11-04T19:09:32.165Z,10.85
2022-11-04T19:12:13.016Z,11.52
2022-11-04T19:14:40.439Z,10.75
2022-11-04T19:17:07.343Z,11.20
2022-11-04T19:19:34.484Z,11.32
2022-11-04T19:22:02.109Z,11.18
2022-11-04T19:24:29.818Z,10.93
2022-11-04T19:26:56.666Z,10.98
2022-11-04T19:29:23.819Z,11.85
2022-11-04T19:31:50.678Z,10.73
2022-11-04T19:34:18.107Z,11.35
2022-11-04T19:36:45.037Z,11.02
2022-11-04T19:39:12.245Z,11.00
2022-11-04T19:42:16.203Z,11.90
2022-11-04T19:44:43.546Z,10.73
2022-11-04T19:47:10.421Z,11.48
2022-11-04T19:49:37.535Z,10.35
2022-11-04T19:52:04.602Z,10.98
2022-11-04T19:54:31.855Z,10.75
2022-11-04T19:56:58.745Z,11.93
2022-11-04T19:59:25.948Z,11.95
2022-11-04T20:01:52.919Z,11.38
2022-11-04T20:04:20.162Z,11.18
2022-11-04T20:06:47.013Z,10.70
2022-11-04T20:09:14.699Z,10.90
2022-11-04T20:12:00.269Z,11.10
2022-11-04T20:14:28.738Z,12.30
2022-11-04T20:16:55.752Z,11.63
2022-11-04T20:19:23.581Z,10.27
2022-11-04T20:21:51.290Z,10.50
2022-11-04T20:24:18.695Z,10.55
2022-11-04T20:26:49.176Z,10.73
2022-11-04T20:29:16.910Z,10.37
2022-11-04T20:31:44.535Z,9.98
2022-11-04T20:34:13.652Z,10.70
2022-11-04T20:36:41.629Z,11.70
2022-11-04T20:39:14.008Z,10.05
2022-11-04T20:41:41.184Z,10.90
2022-11-04T20:44:26.743Z,9.93
2022-11-04T20:46:54.013Z,11.15
2022-11-04T20:49:20.902Z,11.50
2022-11-04T20:51:54.668Z,10.80
2022-11-04T20:54:22.254Z,10.23
2022-11-04T20:56:49.618Z,10.13
2022-11-04T20:59:18.312Z,9.90
2022-11-04T21:02:04.060Z,10.43
2022-11-04T21:04:36.020Z,9.70
2022-11-04T21:07:03.416Z,10.63
2022-11-04T21:09:30.805Z,10.80
2022-11-04T21:11:58.258Z,10.45
2022-11-04T21:14:25.379Z,10.13
2022-11-04T21:16:52.264Z,9.23
2022-11-04T21:19:21.927Z,9.73
2022-11-04T21:21:49.597Z,11.60
2022-11-04T21:24:16.920Z,10.60
2022-11-04T21:26:45.689Z,10.23
2022-11-04T21:29:16.668Z,9.52
2022-11-04T21:31:44.540Z,10.55
2022-11-04T21:34:12.247Z,10.25
2022-11-04T21:36:39.358Z,9.80
2022-11-04T21:39:06.720Z,10.70
2022-11-04T21:41:33.927Z,10.32
2022-11-04T21:44:03.105Z,10.68
2022-11-04T21:46:32.062Z,10.55
2022-11-04T21:49:00.927Z,10.93
2022-11-04T21:51:32.604Z,10.57
2022-11-04T21:54:00.173Z,10.20
2022-11-04T21:56:29.583Z,9.35
2022-11-04T21:58:56.995Z,10.32
2022-11-04T22:01:26.399Z,10.18
2022-11-04T22:03:58.690Z,9.65
2022-11-04T22:06:30.574Z,9.98
2022-11-04T22:09:01.298Z,10.73
2022-11-04T22:11:30.888Z,10.07
2022-11-04T22:14:00.516Z,9.88
2022-11-04T22:16:30.241Z,10.55
2022-11-04T22:19:00.159Z,11.10
2022-11-04T22:21:29.294Z,10.07
2022-11-04T22:23:57.408Z,10.13
2022-11-04T22:26:30.789Z,11.02
2022-11-04T22:28:59.827Z,9.07
2022-11-04T22:31:32.241Z,9.57
2022-11-04T22:34:01.212Z,9.88
2022-11-04T22:36:29.423Z,10.43
2022-11-04T22:38:57.534Z,10.23
2022-11-04T22:41:30.374Z,10.95
2022-11-04T22:43:58.723Z,10.25
2022-11-04T22:46:28.430Z,11.57
2022-11-04T22:48:55.876Z,11.48
2022-11-04T22:51:23.429Z,10.25
2022-11-04T22:53:56.965Z,10.75
2022-11-04T22:56:24.916Z,10.95
2022-11-04T22:58:54.191Z,10.18
2022-11-04T23:01:22.008Z,10.05
2022-11-04T23:03:51.122Z,10.65
2022-11-04T23:06:18.045Z,10.45
2022-11-04T23:08:45.257Z,9.57
2022-11-04T23:11:43.749Z,11.30
2022-11-04T23:14:31.544Z,10.48
2022-11-04T23:17:17.408Z,10.00
2022-11-04T23:19:44.658Z,11.15
2022-11-04T23:22:30.032Z,11.48
2022-11-04T23:25:06.401Z,10.50
2022-11-04T23:27:53.232Z,10.32
2022-11-04T23:30:26.425Z,10.60
2022-11-04T23:33:00.490Z,11.10
2022-11-04T23:35:55.065Z,10.75
2022-11-04T23:38:22.810Z,11.38
2022-11-04T23:41:11.094Z,11.88
2022-11-04T23:43:38.014Z,11.65
2022-11-04T23:46:24.005Z,10.98
2022-11-04T23:49:09.184Z,11.90
2022-11-04T23:51:54.648Z,11.43
2022-11-04T23:54:42.195Z,11.70
2022-11-04T23:57:32.307Z,11.55
